Terminal Aerodrome Forecast
Issued by NWS North Platte, NE

Home | Current Version | Previous Version | Graphics & Text | Print | Product List | Glossary On
Versions: 1 2 3 4 5 6 7 8 9 10 11 12 13 14 15 16 17
000
FTUS43 KLBF 262320
TAFVTN
TAF
KVTN 262320Z 2700/2724 14013KT P6SM VCTS BKN070CB OVC120
      TEMPO 2700/2702 VRB20G30KT 3SM TSRAGS BKN040CB
     FM270300 15011KT P6SM SCT120 BKN200
     FM271400 18011KT P6SM SCT200
     FM272000 17013G22KT P6SM SCT100 BKN200=

USA.gov is the U.S. government's official web portal to all federal, state and local government web resources and services.